Hutchinson County Airport - Borger, Texas, United States - FAA: BGD - ICAO: KBGD - IATA: BGD

 
  Longest Runway: 6,300 feet   Approach Types:    Customs Landing Rights Airport: No   Port of Entry: No

Local Forecast

Tonight (9/2): Mostly clear, with a low around 72. South southeast wind 5 to 10 mph.

Wednesday (9/3): Sunny, with a high near 96. South southwest wind 10 to 20 mph.

Wednesday Night (9/3): Mostly clear, with a low around 71. South wind 15 to 20 mph.

Thursday (9/4): Sunny, with a high near 95. South southwest wind 15 to 20 mph, with gusts as high as 25 mph.

Thursday Night (9/4): Partly cloudy, with a low around 70. South wind 15 to 20 mph decreasing to 10 to 15 mph after midnight. Winds could gust as high as 25 mph.

Friday (9/5): A 20 percent chance of showers and thunderstorms after 1pm. Mostly sunny, with a high near 92. Southwest wind 5 to 10 mph.

Friday Night (9/5): A 30 percent chance of showers and thunderstorms. Mostly cloudy, with a low around 67. Southeast wind 5 to 10 mph.



Current Weather (METAR)

2014/09/02 22:51 KBGD 022251Z AUTO 17005KT 10SM FEW085 36/14 A2990 RMK AO2 SLP075 T03560139

BORGER HUTCHINSON CO AIRPORT , TX, United States (KBGD) 35-42N 101-24W 927M Sep 02, 2014 - 06:51 PM EDT / 2014.09.02 2251 UTC Wind: from the S (170 degrees) at 6 MPH (5 KT):0 Visibility: 10 mile(s):0 Sky conditions: mostly clear Temperature: 96.1 F (35.6 C) Heat index: 94.8 F (34.9 C):1 Dew Point: 57.0 F (13.9 C) Relative Humidity: 27% Pressure (altimeter): 29.9 in. Hg (1012 hPa) ob: KBGD 022251Z AUTO 17005KT 10SM FEW085 36/14 A2990 RMK AO2 SLP075 T03560139 cycle: 23

Terminal Forecast (TAF)